Time;durP1;ratioP1;P1;durP2;ratioP2;P2;SDS_P1;SDS_P2;PMS_P1;PMS_P2;Temp;Humidity;BMP_temperature;BMP_pressure;BME280_temperature;BME280_humidity;BME280_pressure;Samples;Min_cycle;Max_cycle;Signal;HPM_P1;HPM_P2
2023/06/14 00:01:14;;;;;;;5.70;2.20;;;;;;;24.17;58.56;98603.94;6188390;23;20165;-90
2023/06/14 00:03:41;;;;;;;7.87;2.20;;;;;;;24.30;57.93;98599.63;6188592;23;20165;-89
2023/06/14 00:06:07;;;;;;;4.70;2.50;;;;;;;24.38;57.91;98596.88;6214451;23;20292;-89
2023/06/14 00:08:35;;;;;;;5.53;2.70;;;;;;;24.43;58.01;98601.69;6214816;23;20181;-90
2023/06/14 00:11:01;;;;;;;9.73;2.60;;;;;;;24.29;58.72;98594.47;6215049;23;20154;-91
2023/06/14 00:13:28;;;;;;;5.23;2.97;;;;;;;24.25;59.01;98601.19;6214410;23;20151;-90
2023/06/14 00:15:55;;;;;;;5.27;2.43;;;;;;;24.18;59.12;98589.53;6214947;23;20150;-90
2023/06/14 00:18:29;;;;;;;7.77;3.13;;;;;;;24.04;59.96;98591.09;6214798;23;20168;-89
2023/06/14 00:21:19;;;;;;;4.03;2.40;;;;;;;23.88;61.21;98585.88;6214196;23;20129;-90
2023/06/14 00:23:45;;;;;;;5.50;2.33;;;;;;;23.84;61.31;98584.56;6131193;23;20528;-90
2023/06/14 00:26:12;;;;;;;5.73;2.53;;;;;;;23.81;61.18;98593.78;6214727;23;20592;-89
2023/06/14 00:28:38;;;;;;;3.80;2.10;;;;;;;23.78;61.60;98586.09;6214279;23;20804;-89
2023/06/14 00:31:05;;;;;;;4.67;2.67;;;;;;;23.82;61.47;98587.41;6214660;23;20160;-89
2023/06/14 00:33:31;;;;;;;5.60;2.87;;;;;;;23.86;61.23;98585.22;6189133;23;20484;-89
2023/06/14 00:35:58;;;;;;;5.73;1.87;;;;;;;23.82;61.47;98586.56;6214330;23;20152;-89
2023/06/14 00:38:24;;;;;;;4.13;2.33;;;;;;;23.81;61.02;98591.13;6214740;23;20174;-90
2023/06/14 00:40:51;;;;;;;6.43;2.83;;;;;;;23.73;61.53;98590.31;6214900;23;20612;-89
2023/06/14 00:43:18;;;;;;;4.70;2.37;;;;;;;23.63;62.11;98587.03;6214253;23;20154;-89
2023/06/14 00:45:45;;;;;;;9.87;3.07;;;;;;;23.48;63.40;98589.63;6214581;23;20146;-89
2023/06/14 00:48:13;;;;;;;5.87;2.37;;;;;;;23.43;63.54;98589.31;6188753;23;20154;-89
2023/06/14 00:50:41;;;;;;;5.30;2.30;;;;;;;23.51;63.50;98589.28;6188786;23;20150;-89
2023/06/14 00:53:08;;;;;;;7.27;2.50;;;;;;;23.51;62.83;98589.28;6214229;23;20146;-89
2023/06/14 00:55:34;;;;;;;6.07;2.93;;;;;;;23.55;63.05;98584.41;6188346;23;20517;-88
2023/06/14 00:58:01;;;;;;;10.20;3.10;;;;;;;23.53;62.84;98581.09;6214721;23;20468;-89
2023/06/14 01:00:28;;;;;;;8.50;2.73;;;;;;;23.52;62.81;98582.91;6214164;23;20228;-89
2023/06/14 01:02:55;;;;;;;5.47;2.90;;;;;;;23.51;62.96;98583.06;6216459;23;20177;-89
2023/06/14 01:05:21;;;;;;;4.37;2.50;;;;;;;23.49;63.00;98571.72;6216484;23;20157;-89
2023/06/14 01:08:15;;;;;;;6.47;2.33;;;;;;;23.49;63.15;98580.59;6216098;23;20150;-88
2023/06/14 01:10:47;;;;;;;5.43;2.60;;;;;;;23.55;62.85;98577.22;6216683;23;20592;-89
2023/06/14 01:13:32;;;;;;;5.73;3.00;;;;;;;23.63;62.78;98579.00;6216281;23;20146;-89
2023/06/14 01:15:59;;;;;;;5.23;2.50;;;;;;;23.69;62.45;98575.63;6190436;23;20161;-88
2023/06/14 01:18:29;;;;;;;5.20;2.90;;;;;;;23.73;62.35;98583.13;6190239;23;20465;-87
2023/06/14 01:20:56;;;;;;;5.63;3.00;;;;;;;23.69;62.03;98581.81;6216096;23;20463;-89
2023/06/14 01:23:23;;;;;;;6.00;3.23;;;;;;;23.65;61.85;98575.16;6216196;23;20161;-88
2023/06/14 01:25:53;;;;;;;5.10;3.23;;;;;;;23.65;61.79;98583.19;6216457;23;20232;-89
2023/06/14 01:28:21;;;;;;;5.43;2.80;;;;;;;23.60;62.19;98569.50;6189296;23;20509;-89
2023/06/14 01:30:54;;;;;;;4.53;3.10;;;;;;;23.60;62.21;98574.84;6216315;23;20185;-89
2023/06/14 01:33:23;;;;;;;6.87;3.30;;;;;;;23.53;62.51;98573.06;6190445;23;20154;-90
2023/06/14 01:35:52;;;;;;;7.90;3.27;;;;;;;23.54;62.15;98572.88;6215886;23;20150;-89
2023/06/14 01:38:22;;;;;;;7.37;3.17;;;;;;;23.52;62.30;98574.06;6164955;23;20154;-89
2023/06/14 01:40:50;;;;;;;8.17;3.63;;;;;;;23.49;62.49;98569.88;6190111;23;20154;-89
2023/06/14 01:43:18;;;;;;;9.40;3.20;;;;;;;23.44;62.42;98571.41;6215718;23;20160;-89
2023/06/14 01:45:48;;;;;;;6.97;3.53;;;;;;;23.46;62.34;98572.91;6216235;23;20154;-89
2023/06/14 01:48:15;;;;;;;9.27;3.60;;;;;;;23.48;62.41;98567.41;6216181;23;20173;-89
2023/06/14 01:50:42;;;;;;;8.97;3.60;;;;;;;23.43;62.91;98565.22;6216091;23;20589;-88
2023/06/14 01:53:11;;;;;;;8.60;3.53;;;;;;;23.38;62.60;98566.75;6188503;23;20154;-88
2023/06/14 01:55:37;;;;;;;7.03;3.63;;;;;;;23.29;62.92;98562.44;6190195;23;20164;-88
2023/06/14 01:58:04;;;;;;;5.87;3.23;;;;;;;23.25;63.55;98567.31;6215971;23;20228;-88
2023/06/14 02:00:31;;;;;;;7.23;3.57;;;;;;;23.20;63.37;98554.47;6215583;23;20631;-87
2023/06/14 02:02:58;;;;;;;8.00;4.10;;;;;;;23.21;63.72;98560.66;6189777;23;20219;-88
2023/06/14 02:05:26;;;;;;;9.87;4.07;;;;;;;23.23;63.48;98556.78;6189562;23;20475;-88
2023/06/14 02:07:53;;;;;;;6.67;3.80;;;;;;;23.25;63.51;98552.09;6189355;23;20190;-88
2023/06/14 02:10:20;;;;;;;8.90;3.30;;;;;;;23.19;63.88;98560.00;6215765;23;20188;-88
2023/06/14 02:12:48;;;;;;;5.67;3.50;;;;;;;23.20;63.69;98556.28;6215938;23;20146;-88
2023/06/14 02:15:19;;;;;;;13.23;4.03;;;;;;;23.14;64.04;98560.50;6189199;23;20150;-88
2023/06/14 02:17:49;;;;;;;6.57;3.77;;;;;;;23.13;63.79;98564.19;6216013;23;20577;-88
2023/06/14 02:20:16;;;;;;;7.53;3.80;;;;;;;23.09;64.09;98567.38;6215983;23;20482;-88
2023/06/14 02:22:44;;;;;;;8.87;3.40;;;;;;;23.07;63.87;98561.38;6215059;23;20633;-88
2023/06/14 02:25:11;;;;;;;5.93;3.50;;;;;;;23.08;63.88;98563.88;6189524;23;20157;-87
2023/06/14 02:27:38;;;;;;;5.73;3.60;;;;;;;23.12;63.95;98567.03;6215987;23;20157;-88
2023/06/14 02:30:05;;;;;;;8.63;4.50;;;;;;;23.09;64.17;98570.88;6215189;23;20170;-88
2023/06/14 02:32:35;;;;;;;8.57;4.07;;;;;;;23.08;63.49;98563.88;6215443;23;20237;-88
2023/06/14 02:35:03;;;;;;;7.10;3.63;;;;;;;23.06;63.87;98578.44;6215893;23;20185;-88
2023/06/14 02:37:30;;;;;;;9.43;3.93;;;;;;;22.95;64.34;98581.47;6214704;23;20154;-88
2023/06/14 02:39:57;;;;;;;7.87;3.27;;;;;;;22.90;64.88;98590.00;6215827;23;20164;-88
2023/06/14 02:42:24;;;;;;;7.30;3.47;;;;;;;22.82;65.24;98587.34;6215623;23;20149;-88
2023/06/14 02:44:51;;;;;;;6.23;3.33;;;;;;;22.79;65.51;98586.84;6215055;23;20494;-88
2023/06/14 02:47:18;;;;;;;8.23;3.77;;;;;;;22.75;65.34;98585.50;6190569;23;20816;-88
2023/06/14 02:49:50;;;;;;;6.60;3.80;;;;;;;22.69;65.75;98600.41;6215597;23;20594;-87
2023/06/14 02:52:16;;;;;;;7.43;4.07;;;;;;;22.60;65.72;98599.56;6189219;23;20568;-88
2023/06/14 02:54:43;;;;;;;8.10;3.53;;;;;;;22.56;65.96;98598.22;6188780;23;20158;-88
2023/06/14 02:57:10;;;;;;;9.80;4.33;;;;;;;22.52;66.15;98593.38;6189711;23;20185;-87
2023/06/14 02:59:35;;;;;;;11.27;4.17;;;;;;;22.43;66.90;98597.88;6188831;23;20460;-87
2023/06/14 03:02:03;;;;;;;10.17;4.60;;;;;;;22.43;66.55;98595.22;6215238;23;20152;-87
2023/06/14 03:04:36;;;;;;;6.63;3.27;;;;;;;22.46;66.49;98597.56;6189456;23;20166;-87
2023/06/14 03:07:08;;;;;;;6.73;3.23;;;;;;;22.42;66.65;98600.75;6214831;23;20156;-88
2023/06/14 03:09:39;;;;;;;7.10;3.40;;;;;;;22.42;66.71;98611.41;6215542;23;20169;-87
2023/06/14 03:12:09;;;;;;;9.13;3.80;;;;;;;22.38;66.97;98616.25;6164281;23;20173;-88
2023/06/14 03:14:36;;;;;;;6.30;3.67;;;;;;;22.30;67.31;98610.91;6164515;23;20161;-88
2023/06/14 03:17:04;;;;;;;5.97;3.43;;;;;;;22.29;67.58;98613.75;6189350;23;20574;-87
2023/06/14 03:19:34;;;;;;;7.23;3.37;;;;;;;22.31;67.20;98615.25;6214829;23;20142;-87
2023/06/14 03:22:00;;;;;;;7.77;4.10;;;;;;;22.34;67.17;98614.09;6188166;23;20205;-87
2023/06/14 03:24:27;;;;;;;6.93;3.57;;;;;;;22.36;67.17;98606.75;6189200;23;20446;-87
2023/06/14 03:26:55;;;;;;;6.63;3.60;;;;;;;22.38;67.01;98613.59;6214784;23;20154;-87
2023/06/14 03:29:22;;;;;;;7.67;5.43;;;;;;;22.35;67.26;98615.78;6214834;23;20227;-88
2023/06/14 03:32:00;;;;;;;7.00;4.37;;;;;;;22.34;67.83;98617.59;6189097;23;20158;-87
2023/06/14 03:34:27;;;;;;;7.07;3.70;;;;;;;22.33;68.12;98623.09;6215613;23;20176;-87
2023/06/14 03:36:53;;;;;;;7.23;3.60;;;;;;;22.33;68.36;98618.59;6188609;23;20150;-87
2023/06/14 03:39:20;;;;;;;6.27;3.50;;;;;;;22.38;68.00;98623.47;6188701;23;20557;-88
2023/06/14 03:41:46;;;;;;;7.77;4.33;;;;;;;22.39;68.09;98623.28;6188590;23;20482;-87
2023/06/14 03:44:16;;;;;;;8.07;4.47;;;;;;;22.39;68.04;98622.44;6186381;23;20581;-87
2023/06/14 03:46:43;;;;;;;5.40;3.43;;;;;;;22.39;68.43;98617.09;6186588;23;20161;-88
2023/06/14 03:49:10;;;;;;;9.17;4.77;;;;;;;22.34;68.87;98620.28;6185631;23;20186;-87
2023/06/14 03:51:37;;;;;;;10.37;4.77;;;;;;;22.28;69.66;98625.44;6186304;23;20215;-87
2023/06/14 03:54:04;;;;;;;11.63;5.37;;;;;;;22.30;69.67;98626.94;6186867;23;20157;-88
2023/06/14 03:56:30;;;;;;;9.17;4.43;;;;;;;22.30;70.21;98637.63;6212982;23;20474;-88
2023/06/14 03:58:56;;;;;;;8.40;4.90;;;;;;;22.32;70.38;98646.31;6213922;23;20233;-88
2023/06/14 04:01:29;;;;;;;11.47;4.90;;;;;;;22.32;70.12;98632.97;6214999;23;20177;-87
2023/06/14 04:03:56;;;;;;;7.73;5.00;;;;;;;22.40;69.69;98640.97;6189223;23;20146;-87
2023/06/14 04:06:22;;;;;;;10.27;4.87;;;;;;;22.46;69.46;98637.63;6216072;23;20154;-87
2023/06/14 04:08:49;;;;;;;9.83;5.30;;;;;;;22.52;69.16;98639.63;6188919;23;20256;-87
2023/06/14 04:11:15;;;;;;;7.30;5.00;;;;;;;22.57;68.76;98653.31;6188164;23;20248;-87
2023/06/14 04:13:40;;;;;;;9.73;5.30;;;;;;;22.55;69.24;98649.97;6188564;23;20517;-87
2023/06/14 04:16:06;;;;;;;8.67;5.27;;;;;;;22.49;69.65;98656.00;6213985;23;20228;-87
2023/06/14 04:18:31;;;;;;;9.23;5.63;;;;;;;22.49;69.94;98649.81;6190687;23;20164;-87
2023/06/14 04:20:57;;;;;;;7.70;4.87;;;;;;;22.50;69.89;98657.66;6188191;23;20181;-87
2023/06/14 04:23:23;;;;;;;12.33;5.50;;;;;;;22.58;69.79;98655.00;6187042;23;20165;-88
2023/06/14 04:25:49;;;;;;;16.03;5.30;;;;;;;22.68;69.74;98651.34;6213519;23;20153;-87
2023/06/14 04:28:19;;;;;;;9.73;5.30;;;;;;;22.72;69.70;98647.34;6213155;23;20461;-88
2023/06/14 04:30:44;;;;;;;8.47;5.23;;;;;;;22.72;70.12;98650.00;6213565;23;20137;-88
2023/06/14 04:33:11;;;;;;;13.23;5.50;;;;;;;22.77;70.08;98651.19;6213516;23;20154;-88
2023/06/14 04:35:37;;;;;;;9.40;5.77;;;;;;;22.89;69.82;98656.97;6213550;23;20150;-88
2023/06/14 04:38:04;;;;;;;8.73;5.20;;;;;;;22.96;69.51;98663.31;6216576;23;20145;-87
2023/06/14 04:40:30;;;;;;;10.83;5.23;;;;;;;23.02;69.69;98667.97;6191307;23;20237;-87
2023/06/14 04:42:57;;;;;;;12.77;6.63;;;;;;;23.04;70.35;98664.13;6218125;23;20150;-88
2023/06/14 04:45:23;;;;;;;14.20;4.90;;;;;;;23.14;70.16;98672.78;6217461;23;20161;-87
2023/06/14 04:47:50;;;;;;;7.93;4.63;;;;;;;23.28;69.59;98668.59;6191531;23;20465;-88
2023/06/14 04:50:16;;;;;;;8.07;4.07;;;;;;;23.40;69.13;98671.75;6191840;23;20182;-87
2023/06/14 04:52:42;;;;;;;8.23;4.33;;;;;;;23.50;68.21;98677.75;6191447;23;20164;-88
2023/06/14 04:55:08;;;;;;;7.00;3.73;;;;;;;23.56;67.92;98685.06;6191217;23;20158;-88
2023/06/14 04:57:35;;;;;;;6.50;4.13;;;;;;;23.76;66.35;98680.97;6191156;23;20215;-87
2023/06/14 05:00:00;;;;;;;10.93;3.63;;;;;;;23.84;66.33;98686.28;6191679;23;20536;-89
2023/06/14 05:02:26;;;;;;;6.57;3.63;;;;;;;23.93;65.30;98681.69;6191050;23;20169;-90
2023/06/14 05:04:54;;;;;;;8.10;3.77;;;;;;;24.15;63.56;98683.63;6217223;23;20149;-90
2023/06/14 05:07:20;;;;;;;6.57;3.90;;;;;;;24.35;63.66;98690.16;6217545;23;20150;-89
2023/06/14 05:09:45;;;;;;;6.17;3.77;;;;;;;24.42;64.89;98689.28;6217155;23;20201;-88
2023/06/14 05:12:11;;;;;;;5.53;3.60;;;;;;;24.56;66.20;98693.03;6191025;23;20563;-89
2023/06/14 05:14:37;;;;;;;7.17;4.20;;;;;;;24.60;65.82;98699.72;6217552;23;20146;-89
2023/06/14 05:17:02;;;;;;;5.27;3.43;;;;;;;24.84;64.64;98698.69;6217121;23;20150;-89
2023/06/14 05:19:28;;;;;;;7.87;4.20;;;;;;;24.90;62.71;98701.47;6217117;23;20150;-89
2023/06/14 05:21:54;;;;;;;5.70;3.33;;;;;;;25.04;62.07;98695.31;6216914;23;20161;-89
2023/06/14 05:24:20;;;;;;;10.87;4.70;;;;;;;25.02;63.05;98704.56;6217076;23;20146;-89
2023/06/14 05:26:46;;;;;;;9.37;5.20;;;;;;;25.00;62.77;98709.25;6216993;23;20577;-89
2023/06/14 05:29:12;;;;;;;11.10;5.07;;;;;;;25.03;63.20;98707.03;6217034;23;20235;-89
2023/06/14 05:31:37;;;;;;;11.23;5.10;;;;;;;25.05;63.17;98710.38;6217381;23;20216;-89
2023/06/14 05:34:03;;;;;;;14.13;5.53;;;;;;;25.10;63.00;98711.69;6216980;23;20160;-89
2023/06/14 05:36:29;;;;;;;14.77;5.83;;;;;;;25.09;63.05;98713.53;6217288;23;20153;-89
2023/06/14 05:38:59;;;;;;;9.27;5.30;;;;;;;25.13;62.73;98727.41;6216936;23;20142;-89
2023/06/14 05:41:28;;;;;;;9.97;5.70;;;;;;;25.22;62.72;98721.78;6214196;23;20141;-89
2023/06/14 05:43:56;;;;;;;11.17;6.97;;;;;;;25.26;63.32;98722.25;6216668;23;20637;-89
2023/06/14 05:46:25;;;;;;;10.23;5.20;;;;;;;25.39;63.02;98722.47;6190355;23;20479;-88
2023/06/14 05:48:53;;;;;;;13.17;6.13;;;;;;;25.41;63.26;98721.25;6215923;23;20242;-89
2023/06/14 05:51:20;;;;;;;14.20;6.37;;;;;;;25.46;63.30;98723.41;6190432;23;20526;-89
2023/06/14 05:53:47;;;;;;;9.40;6.20;;;;;;;25.51;62.72;98727.19;6190013;23;20215;-89
2023/06/14 05:56:14;;;;;;;8.10;5.37;;;;;;;25.69;62.02;98734.88;6216228;23;20146;-89
2023/06/14 05:58:46;;;;;;;8.63;4.23;;;;;;;25.76;61.63;98733.09;6191036;23;20193;-89
2023/06/14 06:01:11;;;;;;;8.80;4.77;;;;;;;25.81;60.88;98737.94;6211263;23;20162;-88
2023/06/14 06:03:38;;;;;;;9.60;4.37;;;;;;;25.69;60.55;98737.56;6215698;23;20164;-88
2023/06/14 06:06:05;;;;;;;10.30;3.90;;;;;;;25.79;61.06;98732.72;6215675;23;20160;-89
2023/06/14 06:08:32;;;;;;;7.37;3.93;;;;;;;25.90;61.56;98732.25;6189659;23;20185;-88
2023/06/14 06:11:00;;;;;;;9.73;4.07;;;;;;;26.01;59.81;98739.00;6215689;23;20149;-88
2023/06/14 06:13:26;;;;;;;7.87;3.70;;;;;;;26.05;59.25;98740.28;6215900;23;20149;-89
2023/06/14 06:15:53;;;;;;;8.27;4.27;;;;;;;26.12;59.33;98746.59;6214178;23;20156;-89
2023/06/14 06:18:19;;;;;;;9.20;4.30;;;;;;;26.15;58.49;98746.25;6215871;23;20210;-88
2023/06/14 06:20:47;;;;;;;8.47;4.00;;;;;;;26.18;59.33;98744.00;6216111;23;20192;-89
2023/06/14 06:23:12;;;;;;;5.77;3.87;;;;;;;26.21;59.16;98746.31;6189467;23;20276;-88
2023/06/14 06:25:40;;;;;;;10.53;4.30;;;;;;;26.24;58.79;98745.09;6216011;23;20192;-87
2023/06/14 06:28:06;;;;;;;8.93;4.17;;;;;;;26.30;58.38;98744.34;6216204;23;20146;-88
2023/06/14 06:30:33;;;;;;;7.07;3.50;;;;;;;26.37;58.98;98744.41;6188878;23;20166;-88
2023/06/14 06:33:00;;;;;;;6.83;3.90;;;;;;;26.43;55.32;98746.34;6215889;23;20150;-87
2023/06/14 06:35:27;;;;;;;6.57;3.17;;;;;;;26.45;56.30;98745.13;6215743;23;20150;-87
2023/06/14 06:37:53;;;;;;;6.37;3.53;;;;;;;26.54;56.39;98743.16;6216133;23;20150;-87
2023/06/14 06:40:20;;;;;;;8.97;3.60;;;;;;;26.63;55.60;98747.38;6215927;23;20187;-87
2023/06/14 06:42:45;;;;;;;8.67;4.00;;;;;;;26.60;55.29;98745.91;6190183;23;20531;-87
2023/06/14 06:45:11;;;;;;;7.77;4.57;;;;;;;26.63;56.04;98745.53;6215977;23;20237;-87
2023/06/14 06:47:38;;;;;;;8.37;4.70;;;;;;;26.61;57.18;98752.13;6215833;23;20677;-87
2023/06/14 06:50:06;;;;;;;8.17;5.17;;;;;;;26.52;58.74;98754.09;6189226;23;20181;-87
2023/06/14 06:52:32;;;;;;;8.40;3.87;;;;;;;26.52;57.58;98754.09;6189971;23;20154;-87
2023/06/14 06:54:59;;;;;;;12.43;3.40;;;;;;;26.65;56.17;98753.41;6189497;23;20149;-86
2023/06/14 06:57:26;;;;;;;5.20;3.30;;;;;;;26.92;54.29;98749.13;6215566;23;20221;-87
2023/06/14 06:59:52;;;;;;;7.60;4.20;;;;;;;27.22;52.78;98751.47;6189778;23;20165;-89
2023/06/14 07:02:18;;;;;;;5.33;3.50;;;;;;;27.37;53.67;98754.88;6215709;23;20548;-88
2023/06/14 07:04:44;;;;;;;10.20;4.03;;;;;;;27.49;52.57;98747.09;6215769;23;20146;-89
2023/06/14 07:07:11;;;;;;;4.70;2.90;;;;;;;27.36;50.57;98750.50;6215086;23;20150;-88
2023/06/14 07:09:38;;;;;;;3.78;2.35;;;;;;;27.01;51.26;98759.56;6215263;23;20624;-88
2023/06/14 07:12:06;;;;;;;5.40;2.42;;;;;;;27.01;52.75;98751.50;6214938;23;20585;-89
2023/06/14 07:14:34;;;;;;;4.40;2.08;;;;;;;27.09;51.40;98755.91;6215706;23;20240;-89
2023/06/14 07:17:01;;;;;;;4.30;2.00;;;;;;;27.17;50.00;98759.28;6215553;23;20150;-88
2023/06/14 07:19:30;;;;;;;4.97;2.55;;;;;;;27.31;51.12;98755.66;6215278;23;20224;-89
2023/06/14 07:21:56;;;;;;;6.40;2.95;;;;;;;27.48;53.60;98755.38;6215264;23;20284;-89
2023/06/14 07:24:22;;;;;;;5.63;2.47;;;;;;;27.69;53.07;98760.72;6215482;23;20298;-89
2023/06/14 07:26:48;;;;;;;3.60;2.13;;;;;;;27.98;48.51;98752.38;6215395;23;20556;-89
2023/06/14 07:29:16;;;;;;;5.13;2.13;;;;;;;28.06;50.89;98754.94;6214771;23;20181;-87
2023/06/14 07:31:43;;;;;;;6.25;2.33;;;;;;;28.26;51.67;98760.38;6215521;23;20569;-89
2023/06/14 07:34:10;;;;;;;4.03;2.35;;;;;;;28.49;50.25;98750.06;6215308;23;20235;-88
2023/06/14 07:36:36;;;;;;;3.90;2.25;;;;;;;28.71;46.69;98753.47;6215223;23;20150;-88
2023/06/14 07:39:03;;;;;;;3.75;2.13;;;;;;;28.80;47.68;98744.16;6189092;23;20174;-89
2023/06/14 07:41:30;;;;;;;5.47;2.40;;;;;;;28.87;47.51;98751.22;6189166;23;20195;-89
2023/06/14 07:43:57;;;;;;;4.35;2.58;;;;;;;28.91;47.50;98749.75;6215634;23;20480;-89
2023/06/14 07:46:23;;;;;;;4.57;2.15;;;;;;;29.28;46.45;98750.19;6188923;23;20632;-89
2023/06/14 07:48:51;;;;;;;4.60;2.28;;;;;;;29.41;48.32;98756.41;6188860;23;20519;-90
2023/06/14 07:51:17;;;;;;;3.88;2.30;;;;;;;29.62;43.71;98761.56;6214805;23;20180;-89
2023/06/14 07:53:44;;;;;;;7.43;2.00;;;;;;;29.84;43.08;98759.47;6215340;23;20149;-89
2023/06/14 07:56:11;;;;;;;6.00;2.10;;;;;;;29.64;44.47;98751.38;6188719;23;20203;-90
2023/06/14 07:58:36;;;;;;;6.13;1.90;;;;;;;29.72;45.17;98753.03;6215162;23;20565;-90
2023/06/14 08:01:06;;;;;;;5.47;1.60;;;;;;;29.63;44.83;98760.56;6188628;23;20215;-90
2023/06/14 08:03:34;;;;;;;5.13;2.03;;;;;;;29.77;44.29;98762.16;6214900;23;20169;-89
2023/06/14 08:06:01;;;;;;;5.07;1.55;;;;;;;30.02;44.44;98758.78;6215314;23;20169;-90
2023/06/14 08:08:27;;;;;;;2.55;1.40;;;;;;;29.86;42.29;98764.66;6215204;23;20172;-90
2023/06/14 08:10:54;;;;;;;6.25;1.70;;;;;;;29.75;42.47;98766.94;6187978;23;20166;-90
2023/06/14 08:13:22;;;;;;;4.40;1.88;;;;;;;29.71;43.45;98768.44;6214653;23;20161;-90
2023/06/14 08:15:48;;;;;;;5.10;2.60;;;;;;;29.90;43.86;98755.91;6214413;23;20146;-90
2023/06/14 08:18:15;;;;;;;4.88;2.30;;;;;;;29.95;43.10;98763.41;6214233;23;20146;-90
2023/06/14 08:20:42;;;;;;;4.88;2.05;;;;;;;29.97;43.19;98756.75;6215003;23;20577;-90
2023/06/14 08:23:08;;;;;;;4.05;1.90;;;;;;;29.98;43.97;98760.28;6187672;23;20224;-91
2023/06/14 08:25:35;;;;;;;4.68;1.67;;;;;;;30.01;43.52;98757.97;6214669;23;20146;-90
2023/06/14 08:28:02;;;;;;;4.35;2.00;;;;;;;29.98;43.81;98758.38;6214646;23;20585;-89
2023/06/14 08:30:29;;;;;;;4.10;2.53;;;;;;;30.10;44.21;98762.09;6214973;23;20182;-90
2023/06/14 08:32:56;;;;;;;4.93;1.77;;;;;;;30.12;43.47;98762.72;6188783;23;20515;-89
2023/06/14 08:35:24;;;;;;;3.75;2.03;;;;;;;30.53;44.49;98765.00;6215051;23;20195;-91
2023/06/14 08:37:50;;;;;;;3.60;1.92;;;;;;;30.49;43.79;98763.81;6213883;23;20165;-91
2023/06/14 08:40:24;;;;;;;3.55;2.10;;;;;;;30.75;44.19;98758.22;6188936;23;20193;-90
2023/06/14 08:42:54;;;;;;;3.47;2.20;;;;;;;30.84;43.70;98765.06;6188869;23;20158;-90
2023/06/14 08:45:22;;;;;;;8.15;2.17;;;;;;;30.91;41.33;98768.56;6214839;23;20586;-90
2023/06/14 08:47:57;;;;;;;4.57;1.92;;;;;;;30.89;42.18;98775.22;6188237;23;20227;-90
2023/06/14 08:50:26;;;;;;;10.52;2.25;;;;;;;31.12;40.28;98777.34;6188318;23;20169;-91
2023/06/14 08:52:57;;;;;;;4.00;2.13;;;;;;;31.06;41.80;98775.53;6215168;23;20221;-90
2023/06/14 08:55:55;;;;;;;3.97;1.92;;;;;;;31.28;40.20;98772.22;6189323;23;20146;-93
2023/06/14 08:58:47;;;;;;;3.75;2.50;;;;;;;31.56;40.71;98769.06;6213784;23;20236;-91
2023/06/14 09:01:27;;;;;;;;;;;;;;;;;;;;;
2023/06/14 09:04:39;;;;;;;3.78;2.25;;;;;;;31.31;40.46;98768.25;6214685;23;20245;-91
2023/06/14 09:07:09;;;;;;;3.92;2.22;;;;;;;31.07;40.29;98769.91;6176760;23;20233;-91
2023/06/14 09:10:59;;;;;;;7.78;2.35;;;;;;;31.22;40.53;98772.28;6188383;23;20637;-92
2023/06/14 09:13:01;;;;;;;4.00;2.03;;;;;;;31.29;42.88;98768.44;6155081;23;20220;-90
2023/06/14 09:15:29;;;;;;;6.18;2.20;;;;;;;31.17;42.10;98775.66;6214269;23;20561;-90
2023/06/14 09:17:57;;;;;;;9.02;2.25;;;;;;;31.06;41.66;98770.09;6214338;23;20221;-90
2023/06/14 09:20:25;;;;;;;4.47;2.20;;;;;;;31.07;41.85;98774.47;6214542;23;20228;-91
2023/06/14 09:22:53;;;;;;;9.40;3.35;;;;;;;30.96;41.68;98768.72;6215128;23;20170;-90
2023/06/14 09:25:20;;;;;;;4.63;2.40;;;;;;;30.64;41.09;98769.75;6216344;23;20154;-90
2023/06/14 09:27:47;;;;;;;4.85;2.13;;;;;;;30.60;43.43;98765.81;6189789;23;20527;-89
2023/06/14 09:30:13;;;;;;;8.82;2.15;;;;;;;30.62;43.03;98766.44;6216034;23;20182;-89
2023/06/14 09:32:40;;;;;;;3.40;1.42;;;;;;;30.63;41.28;98751.88;6215763;23;20590;-91
2023/06/14 09:35:09;;;;;;;3.13;1.63;;;;;;;30.59;44.00;98750.63;6216304;23;20150;-90
2023/06/14 09:45:01;;;;;;;2.88;1.48;;;;;;;31.21;40.59;98746.25;6088506;23;20157;-91
2023/06/14 09:47:28;;;;;;;2.42;1.45;;;;;;;31.13;39.21;98736.53;6038645;23;20196;-92
2023/06/14 09:49:55;;;;;;;3.05;1.60;;;;;;;31.23;38.75;98746.84;6014519;23;20186;-92
2023/06/14 09:52:27;;;;;;;2.35;1.20;;;;;;;31.28;38.42;98745.16;6038606;23;20177;-91
2023/06/14 09:54:54;;;;;;;2.80;1.40;;;;;;;30.90;38.87;98737.09;6038430;23;20158;-90
2023/06/14 09:57:23;;;;;;;3.58;1.25;;;;;;;30.86;39.34;98744.00;6038063;23;20153;-91
2023/06/14 10:00:20;;;;;;;3.10;1.48;;;;;;;31.06;38.18;98738.44;6014817;23;20260;-91
2023/06/14 10:06:09;;;;;;;4.38;1.60;;;;;;;31.63;39.07;98727.28;6066721;23;20223;-91
2023/06/14 10:08:37;;;;;;;2.00;1.33;;;;;;;31.78;38.51;98726.09;6133925;23;20273;-92
2023/06/14 10:11:04;;;;;;;2.92;1.30;;;;;;;32.02;36.05;98727.94;6216458;23;20146;-91
2023/06/14 10:13:35;;;;;;;3.33;1.50;;;;;;;31.79;36.51;98725.88;6222266;23;20230;-91
2023/06/14 10:16:32;;;;;;;2.42;1.50;;;;;;;31.72;37.10;98725.13;6220483;23;20482;-92
2023/06/14 10:19:16;;;;;;;4.13;1.65;;;;;;;31.94;36.32;98720.91;6220118;23;20134;-90
2023/06/14 10:22:05;;;;;;;3.22;1.83;;;;;;;32.12;36.17;98723.63;6245055;23;20254;-92
2023/06/14 10:24:47;;;;;;;3.72;1.70;;;;;;;32.36;35.74;98723.72;6190386;23;20164;-93
2023/06/14 10:27:18;;;;;;;4.88;1.85;;;;;;;32.55;35.18;98722.63;6190535;23;20146;-90
2023/06/14 10:29:56;;;;;;;6.55;1.92;;;;;;;32.53;36.77;98719.34;6215252;23;20244;-88
2023/06/14 10:32:24;;;;;;;2.97;1.63;;;;;;;32.47;36.43;98706.69;6215496;23;20157;-88
2023/06/14 10:35:16;;;;;;;4.38;1.83;;;;;;;32.64;36.99;98713.94;6189422;23;20153;-88
2023/06/14 10:37:46;;;;;;;4.50;2.05;;;;;;;32.87;37.05;98707.72;6214543;23;20577;-87
2023/06/14 10:40:30;;;;;;;5.07;2.05;;;;;;;32.86;36.71;98711.53;6188237;23;20139;-87
2023/06/14 10:42:57;;;;;;;3.42;1.90;;;;;;;32.84;37.03;98702.75;6190031;23;20149;-87
2023/06/14 10:45:23;;;;;;;3.08;1.63;;;;;;;32.95;35.11;98714.72;6216083;23;20146;-88
2023/06/14 10:47:52;;;;;;;9.52;1.95;;;;;;;33.03;34.28;98704.34;6190155;23;20281;-90
2023/06/14 10:50:30;;;;;;;11.93;2.15;;;;;;;33.21;35.42;98698.81;6215505;23;20209;-88
2023/06/14 10:52:57;;;;;;;4.75;1.70;;;;;;;33.09;36.35;98703.44;6216091;23;20589;-88
2023/06/14 10:55:24;;;;;;;3.05;1.83;;;;;;;33.31;37.53;98695.50;6215238;23;20146;-87
2023/06/14 10:57:58;;;;;;;3.00;1.80;;;;;;;33.65;34.29;98702.81;6216227;23;20164;-89
2023/06/14 11:00:28;;;;;;;3.22;1.92;;;;;;;33.47;35.78;98702.09;6214532;23;20130;-88
2023/06/14 11:03:21;;;;;;;2.63;1.77;;;;;;;33.22;37.01;98695.06;6190285;23;20161;-87
2023/06/14 11:06:00;;;;;;;7.80;2.10;;;;;;;32.89;36.77;98704.81;6215821;23;20153;-87
2023/06/14 11:08:47;;;;;;;2.95;1.73;;;;;;;33.14;37.32;98700.84;6215638;23;20141;-89
2023/06/14 11:11:41;;;;;;;2.75;1.63;;;;;;;33.41;33.75;98696.56;6214206;23;20152;-92
2023/06/14 11:14:09;;;;;;;4.85;1.83;;;;;;;33.62;33.74;98697.06;6215357;23;20200;-89
2023/06/14 11:16:36;;;;;;;4.20;1.90;;;;;;;33.54;34.26;98686.53;6215410;23;20157;-88
2023/06/14 11:19:03;;;;;;;3.78;2.08;;;;;;;33.55;35.40;98683.56;6214781;23;20142;-89
2023/06/14 11:21:33;;;;;;;3.03;1.88;;;;;;;33.45;33.98;98687.94;6215390;23;20224;-90
2023/06/14 11:23:59;;;;;;;2.72;1.60;;;;;;;33.22;34.47;98684.19;6218251;23;20380;-90
2023/06/14 11:26:30;;;;;;;6.75;2.10;;;;;;;33.23;34.65;98677.66;6243237;23;20161;-89
2023/06/14 11:29:05;;;;;;;3.00;1.58;;;;;;;33.08;34.51;98681.91;6245369;23;20251;-89
2023/06/14 11:31:33;;;;;;;5.32;1.98;;;;;;;33.19;35.49;98673.78;6244826;23;20129;-88
2023/06/14 11:34:00;;;;;;;3.50;2.10;;;;;;;33.34;36.11;98674.13;6244823;23;20220;-89
2023/06/14 11:36:30;;;;;;;4.63;1.90;;;;;;;33.73;35.95;98677.16;6245030;23;20539;-89
2023/06/14 11:39:07;;;;;;;3.40;2.03;;;;;;;34.06;34.53;98673.75;6218463;23;20161;-91
2023/06/14 11:41:42;;;;;;;4.05;2.08;;;;;;;34.04;34.01;98668.56;6244205;23;20136;-89
2023/06/14 11:44:09;;;;;;;7.63;2.40;;;;;;;34.03;34.80;98675.06;6245431;23;20195;-88
2023/06/14 11:46:36;;;;;;;2.92;2.17;;;;;;;33.94;34.05;98665.63;6217649;23;20160;-89
2023/06/14 11:49:04;;;;;;;4.30;2.70;;;;;;;33.61;35.02;98668.22;6243208;23;20263;-88
2023/06/14 11:51:32;;;;;;;6.10;2.20;;;;;;;33.27;37.14;98668.00;6242703;23;20173;-88
2023/06/14 11:53:58;;;;;;;3.95;2.45;;;;;;;33.45;37.19;98663.47;6242919;23;20179;-88